sensor_id;sensor_type;location;lat;lon;timestamp;noise_LAeq;noise_LA_min;noise_LA_max;noise_LA01;noise_LA95
71020;Laerm;58902;51.436;5.980;2023-03-26T00:00:07;42.21;37.40;49.51;;
71020;Laerm;58902;51.436;5.980;2023-03-26T00:00:19;37.76;35.20;43.37;;
71020;Laerm;58902;51.436;5.980;2023-03-26T00:00:29;35.59;33.21;40.49;;
71020;Laerm;58902;51.436;5.980;2023-03-26T00:00:40;35.98;33.04;41.58;;
71020;Laerm;58902;51.436;5.980;2023-03-26T00:00:53;35.18;32.20;40.12;;
71020;Laerm;58902;51.436;5.980;2023-03-26T00:01:05;35.22;33.07;39.49;;
71020;Laerm;58902;51.436;5.980;2023-03-26T00:01:18;38.34;33.88;43.60;;
71020;Laerm;58902;51.436;5.980;2023-03-26T00:01:30;37.13;33.99;42.23;;
71020;Laerm;58902;51.436;5.980;2023-03-26T00:01:45;38.37;35.10;43.65;;
71020;Laerm;58902;51.436;5.980;2023-03-26T00:01:58;34.47;31.92;44.82;;
71020;Laerm;58902;51.436;5.980;2023-03-26T00:02:09;33.65;32.06;38.19;;
71020;Laerm;58902;51.436;5.980;2023-03-26T00:02:19;33.42;31.61;41.10;;
71020;Laerm;58902;51.436;5.980;2023-03-26T00:02:30;32.84;30.76;40.41;;
71020;Laerm;58902;51.436;5.980;2023-03-26T00:02:40;32.61;30.27;40.93;;
71020;Laerm;58902;51.436;5.980;2023-03-26T00:02:51;32.27;30.57;40.10;;
71020;Laerm;58902;51.436;5.980;2023-03-26T00:03:01;34.81;30.62;43.57;;
71020;Laerm;58902;51.436;5.980;2023-03-26T00:03:12;36.95;32.43;46.77;;
71020;Laerm;58902;51.436;5.980;2023-03-26T00:03:23;33.85;31.90;38.53;;
71020;Laerm;58902;51.436;5.980;2023-03-26T00:03:35;34.81;33.49;38.03;;
71020;Laerm;58902;51.436;5.980;2023-03-26T00:03:46;34.72;32.83;39.90;;
71020;Laerm;58902;51.436;5.980;2023-03-26T00:04:03;34.24;30.77;43.29;;
71020;Laerm;58902;51.436;5.980;2023-03-26T00:04:14;34.72;30.51;42.49;;
71020;Laerm;58902;51.436;5.980;2023-03-26T00:04:28;33.89;30.25;46.06;;
71020;Laerm;58902;51.436;5.980;2023-03-26T00:04:42;32.96;30.48;40.47;;
71020;Laerm;58902;51.436;5.980;2023-03-26T00:04:52;33.07;31.09;38.10;;
71020;Laerm;58902;51.436;5.980;2023-03-26T00:05:03;32.73;30.28;41.04;;
71020;Laerm;58902;51.436;5.980;2023-03-26T00:05:14;31.81;29.71;36.12;;
71020;Laerm;58902;51.436;5.980;2023-03-26T00:05:25;31.62;29.35;39.67;;
71020;Laerm;58902;51.436;5.980;2023-03-26T00:05:36;31.46;29.55;37.17;;
71020;Laerm;58902;51.436;5.980;2023-03-26T00:05:46;30.72;28.94;38.00;;
71020;Laerm;58902;51.436;5.980;2023-03-26T00:06:01;32.33;29.51;36.36;;
71020;Laerm;58902;51.436;5.980;2023-03-26T00:06:13;34.05;30.98;40.17;;
71020;Laerm;58902;51.436;5.980;2023-03-26T00:06:28;34.17;30.90;38.06;;
71020;Laerm;58902;51.436;5.980;2023-03-26T00:06:39;32.41;29.86;38.38;;
71020;Laerm;58902;51.436;5.980;2023-03-26T00:06:50;33.19;30.57;39.03;;
71020;Laerm;58902;51.436;5.980;2023-03-26T00:07:01;31.95;29.68;39.36;;
71020;Laerm;58902;51.436;5.980;2023-03-26T00:07:12;31.85;29.49;39.44;;
71020;Laerm;58902;51.436;5.980;2023-03-26T00:07:22;31.65;29.55;36.91;;
71020;Laerm;58902;51.436;5.980;2023-03-26T00:07:33;31.81;29.54;40.80;;
71020;Laerm;58902;51.436;5.980;2023-03-26T00:07:44;31.87;29.41;37.15;;
71020;Laerm;58902;51.436;5.980;2023-03-26T00:07:55;33.04;29.96;39.33;;
71020;Laerm;58902;51.436;5.980;2023-03-26T00:08:06;34.14;31.84;39.03;;
71020;Laerm;58902;51.436;5.980;2023-03-26T00:08:20;34.13;30.85;40.17;;
71020;Laerm;58902;51.436;5.980;2023-03-26T00:08:31;33.04;30.25;39.47;;
71020;Laerm;58902;51.436;5.980;2023-03-26T00:08:42;31.87;29.93;40.29;;
71020;Laerm;58902;51.436;5.980;2023-03-26T00:08:54;32.50;30.34;41.62;;
71020;Laerm;58902;51.436;5.980;2023-03-26T00:09:07;33.13;31.32;38.09;;
71020;Laerm;58902;51.436;5.980;2023-03-26T00:09:18;32.74;30.48;41.69;;
71020;Laerm;58902;51.436;5.980;2023-03-26T00:09:28;32.98;30.23;39.75;;
71020;Laerm;58902;51.436;5.980;2023-03-26T00:09:39;31.82;30.04;38.46;;
71020;Laerm;58902;51.436;5.980;2023-03-26T00:09:49;32.02;29.83;40.85;;
71020;Laerm;58902;51.436;5.980;2023-03-26T00:10:00;34.21;32.66;39.22;;
71020;Laerm;58902;51.436;5.980;2023-03-26T00:10:10;34.72;33.01;38.78;;
71020;Laerm;58902;51.436;5.980;2023-03-26T00:10:21;33.64;32.18;38.00;;
71020;Laerm;58902;51.436;5.980;2023-03-26T00:10:31;33.89;32.31;40.86;;
71020;Laerm;58902;51.436;5.980;2023-03-26T00:10:42;33.93;32.46;39.58;;
71020;Laerm;58902;51.436;5.980;2023-03-26T00:10:53;34.61;31.21;41.27;;
71020;Laerm;58902;51.436;5.980;2023-03-26T00:11:03;38.29;37.12;42.81;;
71020;Laerm;58902;51.436;5.980;2023-03-26T00:11:15;36.61;34.66;38.75;;
71020;Laerm;58902;51.436;5.980;2023-03-26T00:11:27;35.21;30.75;40.84;;
71020;Laerm;58902;51.436;5.980;2023-03-26T00:11:38;32.96;30.84;44.13;;
71020;Laerm;58902;51.436;5.980;2023-03-26T00:11:48;33.42;31.29;39.68;;
71020;Laerm;58902;51.436;5.980;2023-03-26T00:11:59;32.62;30.32;39.49;;
71020;Laerm;58902;51.436;5.980;2023-03-26T00:12:09;33.36;31.12;38.74;;
71020;Laerm;58902;51.436;5.980;2023-03-26T00:12:19;33.32;30.75;40.59;;
71020;Laerm;58902;51.436;5.980;2023-03-26T00:12:30;34.63;32.08;39.98;;
71020;Laerm;58902;51.436;5.980;2023-03-26T00:12:40;34.51;31.56;38.28;;
71020;Laerm;58902;51.436;5.980;2023-03-26T00:12:54;35.01;31.43;39.63;;
71020;Laerm;58902;51.436;5.980;2023-03-26T00:13:05;35.92;32.79;41.83;;
71020;Laerm;58902;51.436;5.980;2023-03-26T00:13:15;36.56;33.27;42.86;;
71020;Laerm;58902;51.436;5.980;2023-03-26T00:13:26;34.93;33.05;39.06;;
71020;Laerm;58902;51.436;5.980;2023-03-26T00:13:36;35.85;32.38;41.58;;
71020;Laerm;58902;51.436;5.980;2023-03-26T00:13:47;35.83;32.84;40.69;;
71020;Laerm;58902;51.436;5.980;2023-03-26T00:13:58;37.58;33.43;41.14;;
71020;Laerm;58902;51.436;5.980;2023-03-26T00:14:09;36.32;33.36;39.66;;
71020;Laerm;58902;51.436;5.980;2023-03-26T00:14:22;37.79;34.83;40.72;;
71020;Laerm;58902;51.436;5.980;2023-03-26T00:14:33;35.68;33.22;38.69;;
71020;Laerm;58902;51.436;5.980;2023-03-26T00:14:44;33.78;31.33;36.65;;
71020;Laerm;58902;51.436;5.980;2023-03-26T00:14:55;34.44;31.86;38.79;;
71020;Laerm;58902;51.436;5.980;2023-03-26T00:15:06;34.02;31.44;42.35;;
71020;Laerm;58902;51.436;5.980;2023-03-26T00:15:19;38.75;32.14;51.52;;
71020;Laerm;58902;51.436;5.980;2023-03-26T00:15:29;38.79;33.90;43.76;;
71020;Laerm;58902;51.436;5.980;2023-03-26T00:15:40;37.38;31.37;43.73;;
71020;Laerm;58902;51.436;5.980;2023-03-26T00:15:50;33.09;31.65;36.89;;
71020;Laerm;58902;51.436;5.980;2023-03-26T00:16:02;34.66;32.21;43.28;;
71020;Laerm;58902;51.436;5.980;2023-03-26T00:16:13;33.76;31.53;37.42;;
71020;Laerm;58902;51.436;5.980;2023-03-26T00:16:25;33.48;31.29;41.95;;
71020;Laerm;58902;51.436;5.980;2023-03-26T00:16:37;36.86;33.56;41.87;;
71020;Laerm;58902;51.436;5.980;2023-03-26T00:16:47;36.20;33.90;39.40;;
71020;Laerm;58902;51.436;5.980;2023-03-26T00:16:58;36.03;32.58;49.49;;
71020;Laerm;58902;51.436;5.980;2023-03-26T00:17:09;34.31;31.26;42.60;;
71020;Laerm;58902;51.436;5.980;2023-03-26T00:17:19;32.41;30.35;39.29;;
71020;Laerm;58902;51.436;5.980;2023-03-26T00:17:30;31.83;30.21;34.76;;
71020;Laerm;58902;51.436;5.980;2023-03-26T00:17:40;32.79;30.45;38.11;;
71020;Laerm;58902;51.436;5.980;2023-03-26T00:17:50;34.56;32.85;38.20;;
71020;Laerm;58902;51.436;5.980;2023-03-26T00:18:03;34.64;33.11;37.66;;
71020;Laerm;58902;51.436;5.980;2023-03-26T00:18:14;33.35;30.41;38.95;;
71020;Laerm;58902;51.436;5.980;2023-03-26T00:18:25;32.99;31.85;37.68;;
71020;Laerm;58902;51.436;5.980;2023-03-26T00:18:43;33.26;31.43;39.34;;
71020;Laerm;58902;51.436;5.980;2023-03-26T00:18:54;33.58;32.32;36.67;;
71020;Laerm;58902;51.436;5.980;2023-03-26T00:19:05;33.67;32.34;39.24;;
71020;Laerm;58902;51.436;5.980;2023-03-26T00:19:15;32.39;29.68;39.82;;
71020;Laerm;58902;51.436;5.980;2023-03-26T00:19:26;31.82;29.49;39.19;;
71020;Laerm;58902;51.436;5.980;2023-03-26T00:19:36;32.02;29.93;38.72;;
71020;Laerm;58902;51.436;5.980;2023-03-26T00:19:48;31.77;29.78;37.08;;
71020;Laerm;58902;51.436;5.980;2023-03-26T00:19:58;32.88;30.83;36.61;;
71020;Laerm;58902;51.436;5.980;2023-03-26T00:20:09;33.73;30.50;43.88;;
71020;Laerm;58902;51.436;5.980;2023-03-26T00:20:20;32.60;30.25;36.67;;
71020;Laerm;58902;51.436;5.980;2023-03-26T00:20:30;32.93;30.88;35.86;;
71020;Laerm;58902;51.436;5.980;2023-03-26T00:20:43;34.68;31.55;38.56;;
71020;Laerm;58902;51.436;5.980;2023-03-26T00:20:55;35.97;33.64;41.18;;
71020;Laerm;58902;51.436;5.980;2023-03-26T00:21:06;36.26;33.37;40.02;;
71020;Laerm;58902;51.436;5.980;2023-03-26T00:21:18;37.08;32.74;41.74;;
71020;Laerm;58902;51.436;5.980;2023-03-26T00:21:36;36.67;33.28;41.00;;
71020;Laerm;58902;51.436;5.980;2023-03-26T00:21:47;35.51;33.19;38.74;;
71020;Laerm;58902;51.436;5.980;2023-03-26T00:21:57;34.89;32.79;38.23;;
71020;Laerm;58902;51.436;5.980;2023-03-26T00:22:07;35.30;33.74;37.62;;
71020;Laerm;58902;51.436;5.980;2023-03-26T00:22:22;36.14;33.54;39.35;;
71020;Laerm;58902;51.436;5.980;2023-03-26T00:22:33;36.19;32.69;39.46;;
71020;Laerm;58902;51.436;5.980;2023-03-26T00:22:43;33.39;31.03;37.62;;
71020;Laerm;58902;51.436;5.980;2023-03-26T00:22:54;32.77;31.09;38.15;;
71020;Laerm;58902;51.436;5.980;2023-03-26T00:23:05;32.54;30.62;38.86;;
71020;Laerm;58902;51.436;5.980;2023-03-26T00:23:17;32.45;30.33;37.41;;
71020;Laerm;58902;51.436;5.980;2023-03-26T00:23:28;32.23;30.28;40.10;;
71020;Laerm;58902;51.436;5.980;2023-03-26T00:23:39;32.44;30.34;38.95;;
71020;Laerm;58902;51.436;5.980;2023-03-26T00:23:50;32.67;30.73;37.40;;
71020;Laerm;58902;51.436;5.980;2023-03-26T00:24:03;32.32;30.67;36.16;;
71020;Laerm;58902;51.436;5.980;2023-03-26T00:24:14;32.43;30.52;35.63;;
71020;Laerm;58902;51.436;5.980;2023-03-26T00:24:25;32.97;31.22;38.33;;
71020;Laerm;58902;51.436;5.980;2023-03-26T00:24:39;32.98;31.13;40.28;;
71020;Laerm;58902;51.436;5.980;2023-03-26T00:24:49;33.16;31.06;38.24;;
71020;Laerm;58902;51.436;5.980;2023-03-26T00:25:00;33.31;31.93;37.33;;
71020;Laerm;58902;51.436;5.980;2023-03-26T00:25:10;33.27;31.68;37.22;;
71020;Laerm;58902;51.436;5.980;2023-03-26T00:25:22;33.70;31.54;39.44;;
71020;Laerm;58902;51.436;5.980;2023-03-26T00:25:33;33.16;31.45;37.61;;
71020;Laerm;58902;51.436;5.980;2023-03-26T00:25:43;33.62;31.51;37.05;;
71020;Laerm;58902;51.436;5.980;2023-03-26T00:25:55;35.15;31.70;38.52;;
71020;Laerm;58902;51.436;5.980;2023-03-26T00:26:05;35.55;32.62;41.31;;
71020;Laerm;58902;51.436;5.980;2023-03-26T00:26:19;46.65;34.35;53.99;;
71020;Laerm;58902;51.436;5.980;2023-03-26T00:26:33;38.34;31.44;47.95;;
71020;Laerm;58902;51.436;5.980;2023-03-26T00:26:44;33.82;31.37;44.28;;
71020;Laerm;58902;51.436;5.980;2023-03-26T00:27:02;34.30;32.30;39.03;;
71020;Laerm;58902;51.436;5.980;2023-03-26T00:27:12;34.66;33.12;37.50;;
71020;Laerm;58902;51.436;5.980;2023-03-26T00:27:23;33.95;31.67;40.42;;
71020;Laerm;58902;51.436;5.980;2023-03-26T00:27:34;34.63;32.34;38.28;;
71020;Laerm;58902;51.436;5.980;2023-03-26T00:27:45;34.76;32.48;36.80;;
71020;Laerm;58902;51.436;5.980;2023-03-26T00:27:55;36.45;32.74;39.35;;
71020;Laerm;58902;51.436;5.980;2023-03-26T00:28:06;37.45;35.83;39.30;;
71020;Laerm;58902;51.436;5.980;2023-03-26T00:28:17;37.58;32.34;43.22;;
71020;Laerm;58902;51.436;5.980;2023-03-26T00:28:30;33.47;31.79;37.48;;
71020;Laerm;58902;51.436;5.980;2023-03-26T00:28:41;33.75;31.76;41.03;;
71020;Laerm;58902;51.436;5.980;2023-03-26T00:28:51;33.37;31.38;38.24;;
71020;Laerm;58902;51.436;5.980;2023-03-26T00:29:03;33.23;31.83;37.38;;
71020;Laerm;58902;51.436;5.980;2023-03-26T00:29:15;33.22;30.99;37.49;;
71020;Laerm;58902;51.436;5.980;2023-03-26T00:29:27;33.42;31.75;41.05;;
71020;Laerm;58902;51.436;5.980;2023-03-26T00:29:38;33.59;32.19;35.98;;
71020;Laerm;58902;51.436;5.980;2023-03-26T00:29:49;34.13;31.28;37.52;;
71020;Laerm;58902;51.436;5.980;2023-03-26T00:29:59;33.34;31.23;37.25;;
71020;Laerm;58902;51.436;5.980;2023-03-26T00:30:10;32.61;30.86;36.31;;
71020;Laerm;58902;51.436;5.980;2023-03-26T00:30:20;33.39;31.10;40.21;;
71020;Laerm;58902;51.436;5.980;2023-03-26T00:30:31;33.60;31.57;39.67;;
71020;Laerm;58902;51.436;5.980;2023-03-26T00:30:42;34.09;31.79;38.17;;
71020;Laerm;58902;51.436;5.980;2023-03-26T00:31:00;32.61;30.52;36.69;;
71020;Laerm;58902;51.436;5.980;2023-03-26T00:31:12;32.74;30.68;39.69;;
71020;Laerm;58902;51.436;5.980;2023-03-26T00:31:23;33.30;31.81;37.64;;
71020;Laerm;58902;51.436;5.980;2023-03-26T00:31:33;33.56;31.48;36.21;;
71020;Laerm;58902;51.436;5.980;2023-03-26T00:31:44;33.40;31.61;36.16;;
71020;Laerm;58902;51.436;5.980;2023-03-26T00:31:55;33.62;31.67;36.66;;
71020;Laerm;58902;51.436;5.980;2023-03-26T00:32:06;34.98;32.36;38.78;;
71020;Laerm;58902;51.436;5.980;2023-03-26T00:32:16;36.22;32.75;42.91;;
71020;Laerm;58902;51.436;5.980;2023-03-26T00:32:27;37.91;35.63;42.08;;
71020;Laerm;58902;51.436;5.980;2023-03-26T00:32:38;39.15;35.47;44.52;;
71020;Laerm;58902;51.436;5.980;2023-03-26T00:32:48;37.73;34.69;40.74;;
71020;Laerm;58902;51.436;5.980;2023-03-26T00:32:59;35.35;34.04;37.47;;
71020;Laerm;58902;51.436;5.980;2023-03-26T00:33:09;35.74;32.54;46.19;;
71020;Laerm;58902;51.436;5.980;2023-03-26T00:33:21;34.91;32.12;40.83;;
71020;Laerm;58902;51.436;5.980;2023-03-26T00:33:34;34.97;32.26;37.88;;
71020;Laerm;58902;51.436;5.980;2023-03-26T00:33:49;33.59;31.21;38.90;;
71020;Laerm;58902;51.436;5.980;2023-03-26T00:34:00;33.71;31.68;37.77;;
71020;Laerm;58902;51.436;5.980;2023-03-26T00:34:12;33.26;31.20;38.78;;
71020;Laerm;58902;51.436;5.980;2023-03-26T00:34:24;32.74;30.97;37.38;;
71020;Laerm;58902;51.436;5.980;2023-03-26T00:34:35;38.78;31.10;58.14;;
71020;Laerm;58902;51.436;5.980;2023-03-26T00:34:46;45.15;30.81;63.11;;
71020;Laerm;58902;51.436;5.980;2023-03-26T00:34:57;36.75;31.47;41.88;;
71020;Laerm;58902;51.436;5.980;2023-03-26T00:35:07;38.57;33.95;42.58;;
71020;Laerm;58902;51.436;5.980;2023-03-26T00:35:18;35.93;32.60;40.05;;
71020;Laerm;58902;51.436;5.980;2023-03-26T00:35:29;33.80;30.86;39.15;;
71020;Laerm;58902;51.436;5.980;2023-03-26T00:35:40;32.78;30.50;35.49;;
71020;Laerm;58902;51.436;5.980;2023-03-26T00:35:52;31.65;29.69;35.17;;
71020;Laerm;58902;51.436;5.980;2023-03-26T00:36:04;32.44;29.70;38.08;;
71020;Laerm;58902;51.436;5.980;2023-03-26T00:36:15;31.20;28.87;35.56;;
71020;Laerm;58902;51.436;5.980;2023-03-26T00:36:26;30.99;28.80;37.70;;
71020;Laerm;58902;51.436;5.980;2023-03-26T00:36:37;30.58;28.97;36.57;;
71020;Laerm;58902;51.436;5.980;2023-03-26T00:36:47;31.10;28.96;43.03;;
71020;Laerm;58902;51.436;5.980;2023-03-26T00:37:04;31.29;28.85;39.94;;
71020;Laerm;58902;51.436;5.980;2023-03-26T00:37:14;31.44;28.78;39.81;;
71020;Laerm;58902;51.436;5.980;2023-03-26T00:37:25;35.52;31.00;44.43;;
71020;Laerm;58902;51.436;5.980;2023-03-26T00:37:36;36.35;31.55;41.78;;
71020;Laerm;58902;51.436;5.980;2023-03-26T00:37:46;33.90;28.38;39.21;;
71020;Laerm;58902;51.436;5.980;2023-03-26T00:38:00;31.12;28.42;40.30;;
71020;Laerm;58902;51.436;5.980;2023-03-26T00:38:12;31.97;29.16;36.65;;
71020;Laerm;58902;51.436;5.980;2023-03-26T00:38:23;30.98;28.55;36.90;;
71020;Laerm;58902;51.436;5.980;2023-03-26T00:38:33;33.87;29.60;44.07;;
71020;Laerm;58902;51.436;5.980;2023-03-26T00:38:47;39.32;30.81;51.49;;
71020;Laerm;58902;51.436;5.980;2023-03-26T00:38:58;45.70;33.14;55.89;;
71020;Laerm;58902;51.436;5.980;2023-03-26T00:39:08;42.54;33.05;56.60;;
71020;Laerm;58902;51.436;5.980;2023-03-26T00:39:20;34.79;31.88;39.48;;
71020;Laerm;58902;51.436;5.980;2023-03-26T00:39:33;37.35;33.80;41.55;;
71020;Laerm;58902;51.436;5.980;2023-03-26T00:39:46;33.68;30.69;41.61;;
71020;Laerm;58902;51.436;5.980;2023-03-26T00:39:58;33.15;29.29;40.73;;
71020;Laerm;58902;51.436;5.980;2023-03-26T00:40:11;34.78;29.53;47.61;;
71020;Laerm;58902;51.436;5.980;2023-03-26T00:40:22;31.36;29.48;36.16;;
71020;Laerm;58902;51.436;5.980;2023-03-26T00:40:32;31.58;29.49;36.69;;
71020;Laerm;58902;51.436;5.980;2023-03-26T00:40:45;35.76;30.04;47.55;;
71020;Laerm;58902;51.436;5.980;2023-03-26T00:41:00;35.75;31.28;46.86;;
71020;Laerm;58902;51.436;5.980;2023-03-26T00:41:16;33.97;30.65;37.80;;
71020;Laerm;58902;51.436;5.980;2023-03-26T00:41:27;33.95;31.72;39.59;;
71020;Laerm;58902;51.436;5.980;2023-03-26T00:41:40;37.36;31.48;48.87;;
71020;Laerm;58902;51.436;5.980;2023-03-26T00:41:52;35.48;31.01;38.24;;
71020;Laerm;58902;51.436;5.980;2023-03-26T00:42:03;36.59;35.83;39.23;;
71020;Laerm;58902;51.436;5.980;2023-03-26T00:42:16;35.61;30.73;42.59;;
71020;Laerm;58902;51.436;5.980;2023-03-26T00:42:27;32.31;30.82;37.62;;
71020;Laerm;58902;51.436;5.980;2023-03-26T00:42:37;32.33;30.78;39.77;;
71020;Laerm;58902;51.436;5.980;2023-03-26T00:42:48;32.37;30.57;37.42;;
71020;Laerm;58902;51.436;5.980;2023-03-26T00:42:59;32.18;30.84;34.87;;
71020;Laerm;58902;51.436;5.980;2023-03-26T00:43:09;33.85;30.59;40.36;;
71020;Laerm;58902;51.436;5.980;2023-03-26T00:43:27;34.03;32.22;38.02;;
71020;Laerm;58902;51.436;5.980;2023-03-26T00:43:44;34.74;32.36;38.44;;
71020;Laerm;58902;51.436;5.980;2023-03-26T00:43:56;34.05;31.01;39.18;;
71020;Laerm;58902;51.436;5.980;2023-03-26T00:44:07;40.80;31.07;47.89;;
71020;Laerm;58902;51.436;5.980;2023-03-26T00:44:17;42.25;31.56;49.39;;
71020;Laerm;58902;51.436;5.980;2023-03-26T00:44:28;32.02;30.64;34.74;;
71020;Laerm;58902;51.436;5.980;2023-03-26T00:44:39;32.19;30.49;37.58;;
71020;Laerm;58902;51.436;5.980;2023-03-26T00:44:49;32.14;30.62;37.40;;
71020;Laerm;58902;51.436;5.980;2023-03-26T00:45:04;32.15;30.26;37.11;;
71020;Laerm;58902;51.436;5.980;2023-03-26T00:45:18;33.28;30.74;38.86;;
71020;Laerm;58902;51.436;5.980;2023-03-26T00:45:30;39.31;33.09;44.91;;
71020;Laerm;58902;51.436;5.980;2023-03-26T00:45:41;34.64;32.73;38.36;;
71020;Laerm;58902;51.436;5.980;2023-03-26T00:45:52;34.88;32.34;39.33;;
71020;Laerm;58902;51.436;5.980;2023-03-26T00:46:03;35.72;32.79;49.85;;
71020;Laerm;58902;51.436;5.980;2023-03-26T00:46:15;35.37;32.93;39.46;;
71020;Laerm;58902;51.436;5.980;2023-03-26T00:46:27;34.25;31.28;38.68;;
71020;Laerm;58902;51.436;5.980;2023-03-26T00:46:38;32.25;30.48;36.29;;
71020;Laerm;58902;51.436;5.980;2023-03-26T00:46:48;32.09;30.51;37.36;;
71020;Laerm;58902;51.436;5.980;2023-03-26T00:46:59;35.33;30.82;42.19;;
71020;Laerm;58902;51.436;5.980;2023-03-26T00:47:09;35.27;34.13;40.08;;
71020;Laerm;58902;51.436;5.980;2023-03-26T00:47:20;35.54;34.35;37.21;;
71020;Laerm;58902;51.436;5.980;2023-03-26T00:47:32;33.58;31.12;36.56;;
71020;Laerm;58902;51.436;5.980;2023-03-26T00:47:42;33.22;31.18;41.55;;
71020;Laerm;58902;51.436;5.980;2023-03-26T00:47:54;32.05;30.45;35.35;;
71020;Laerm;58902;51.436;5.980;2023-03-26T00:48:04;32.02;30.30;35.27;;
71020;Laerm;58902;51.436;5.980;2023-03-26T00:48:15;32.59;30.94;35.81;;
71020;Laerm;58902;51.436;5.980;2023-03-26T00:48:27;32.52;30.51;35.44;;
71020;Laerm;58902;51.436;5.980;2023-03-26T00:48:39;32.42;29.81;36.06;;
71020;Laerm;58902;51.436;5.980;2023-03-26T00:48:51;32.16;30.41;36.79;;
71020;Laerm;58902;51.436;5.980;2023-03-26T00:49:02;32.01;29.43;35.13;;
71020;Laerm;58902;51.436;5.980;2023-03-26T00:49:13;30.75;28.84;34.03;;
71020;Laerm;58902;51.436;5.980;2023-03-26T00:49:23;30.86;29.04;36.79;;
71020;Laerm;58902;51.436;5.980;2023-03-26T00:49:35;31.15;29.41;37.42;;
71020;Laerm;58902;51.436;5.980;2023-03-26T00:49:46;31.68;30.06;35.14;;
71020;Laerm;58902;51.436;5.980;2023-03-26T00:49:57;32.85;30.25;38.06;;
71020;Laerm;58902;51.436;5.980;2023-03-26T00:50:08;31.38;29.18;37.08;;
71020;Laerm;58902;51.436;5.980;2023-03-26T00:50:24;30.89;28.83;36.50;;
71020;Laerm;58902;51.436;5.980;2023-03-26T00:50:35;31.27;29.52;39.90;;
71020;Laerm;58902;51.436;5.980;2023-03-26T00:50:46;30.65;28.96;34.66;;
71020;Laerm;58902;51.436;5.980;2023-03-26T00:50:56;30.30;28.66;34.53;;
71020;Laerm;58902;51.436;5.980;2023-03-26T00:51:07;30.59;28.81;36.78;;
71020;Laerm;58902;51.436;5.980;2023-03-26T00:51:18;30.33;28.68;37.51;;
71020;Laerm;58902;51.436;5.980;2023-03-26T00:51:30;30.48;28.64;39.41;;
71020;Laerm;58902;51.436;5.980;2023-03-26T00:51:40;30.27;28.79;35.46;;
71020;Laerm;58902;51.436;5.980;2023-03-26T00:51:53;30.31;28.37;37.70;;
71020;Laerm;58902;51.436;5.980;2023-03-26T00:52:04;30.32;28.74;35.44;;
71020;Laerm;58902;51.436;5.980;2023-03-26T00:52:17;30.13;28.51;34.29;;
71020;Laerm;58902;51.436;5.980;2023-03-26T00:52:28;30.35;29.02;34.43;;
71020;Laerm;58902;51.436;5.980;2023-03-26T00:52:42;30.96;29.06;37.65;;
71020;Laerm;58902;51.436;5.980;2023-03-26T00:52:53;31.43;29.32;36.64;;
71020;Laerm;58902;51.436;5.980;2023-03-26T00:53:04;31.54;29.91;35.43;;
71020;Laerm;58902;51.436;5.980;2023-03-26T00:53:17;31.08;29.63;34.90;;
71020;Laerm;58902;51.436;5.980;2023-03-26T00:53:29;31.31;29.57;38.70;;
71020;Laerm;58902;51.436;5.980;2023-03-26T00:53:39;31.88;29.51;37.05;;
71020;Laerm;58902;51.436;5.980;2023-03-26T00:53:50;32.09;30.22;36.76;;
71020;Laerm;58902;51.436;5.980;2023-03-26T00:54:00;31.62;29.97;38.94;;
71020;Laerm;58902;51.436;5.980;2023-03-26T00:54:11;32.39;29.71;36.56;;
71020;Laerm;58902;51.436;5.980;2023-03-26T00:54:21;33.07;31.54;36.56;;
71020;Laerm;58902;51.436;5.980;2023-03-26T00:54:32;33.53;31.29;37.83;;
71020;Laerm;58902;51.436;5.980;2023-03-26T00:54:42;45.51;32.28;50.54;;
71020;Laerm;58902;51.436;5.980;2023-03-26T00:54:53;42.91;37.17;50.48;;
71020;Laerm;58902;51.436;5.980;2023-03-26T00:55:04;39.64;36.30;44.51;;
71020;Laerm;58902;51.436;5.980;2023-03-26T00:55:14;40.24;37.90;43.73;;
71020;Laerm;58902;51.436;5.980;2023-03-26T00:55:25;41.77;37.84;50.01;;
71020;Laerm;58902;51.436;5.980;2023-03-26T00:55:35;72.12;50.08;76.60;;
71020;Laerm;58902;51.436;5.980;2023-03-26T00:55:46;72.77;68.31;79.19;;
71020;Laerm;58902;51.436;5.980;2023-03-26T00:55:56;70.26;47.07;78.07;;
71020;Laerm;58902;51.436;5.980;2023-03-26T00:56:09;45.82;41.65;50.78;;
71020;Laerm;58902;51.436;5.980;2023-03-26T00:56:20;41.53;35.89;50.31;;
71020;Laerm;58902;51.436;5.980;2023-03-26T00:56:30;36.16;32.66;39.79;;
71020;Laerm;58902;51.436;5.980;2023-03-26T00:56:40;33.14;31.00;35.91;;
71020;Laerm;58902;51.436;5.980;2023-03-26T00:56:51;31.90;30.05;34.93;;
71020;Laerm;58902;51.436;5.980;2023-03-26T00:57:05;31.95;30.04;36.26;;
71020;Laerm;58902;51.436;5.980;2023-03-26T00:57:15;31.86;30.45;35.40;;
71020;Laerm;58902;51.436;5.980;2023-03-26T00:57:26;31.77;30.45;36.38;;
71020;Laerm;58902;51.436;5.980;2023-03-26T00:57:39;31.98;30.48;35.68;;
71020;Laerm;58902;51.436;5.980;2023-03-26T00:57:49;32.15;30.70;35.30;;
71020;Laerm;58902;51.436;5.980;2023-03-26T00:58:00;31.76;30.34;35.33;;
71020;Laerm;58902;51.436;5.980;2023-03-26T00:58:10;31.88;29.92;34.92;;
71020;Laerm;58902;51.436;5.980;2023-03-26T00:58:21;32.58;30.99;35.95;;
71020;Laerm;58902;51.436;5.980;2023-03-26T00:58:32;32.50;31.01;37.54;;
71020;Laerm;58902;51.436;5.980;2023-03-26T00:58:43;32.46;30.66;35.44;;
71020;Laerm;58902;51.436;5.980;2023-03-26T00:58:53;32.37;30.76;36.53;;
71020;Laerm;58902;51.436;5.980;2023-03-26T00:59:04;32.29;31.09;35.47;;
71020;Laerm;58902;51.436;5.980;2023-03-26T00:59:14;32.55;31.02;34.73;;
71020;Laerm;58902;51.436;5.980;2023-03-26T00:59:26;32.50;30.60;37.20;;
71020;Laerm;58902;51.436;5.980;2023-03-26T00:59:39;31.80;29.98;35.67;;
71020;Laerm;58902;51.436;5.980;2023-03-26T00:59:50;31.58;29.87;38.55;;
71020;Laerm;58902;51.436;5.980;2023-03-26T01:00:00;31.92;30.21;36.01;;
71020;Laerm;58902;51.436;5.980;2023-03-26T01:00:28;32.05;30.30;36.99;;
71020;Laerm;58902;51.436;5.980;2023-03-26T01:00:43;32.31;30.11;36.12;;
71020;Laerm;58902;51.436;5.980;2023-03-26T01:00:55;33.83;31.53;39.69;;
71020;Laerm;58902;51.436;5.980;2023-03-26T01:01:08;33.04;30.99;38.08;;
71020;Laerm;58902;51.436;5.980;2023-03-26T01:01:23;32.19;29.97;34.95;;
71020;Laerm;58902;51.436;5.980;2023-03-26T01:01:36;31.84;30.05;35.75;;
71020;Laerm;58902;51.436;5.980;2023-03-26T01:01:47;31.67;30.32;35.67;;
71020;Laerm;58902;51.436;5.980;2023-03-26T01:01:57;31.96;30.19;38.56;;
71020;Laerm;58902;51.436;5.980;2023-03-26T01:02:11;35.81;31.42;41.45;;
71020;Laerm;58902;51.436;5.980;2023-03-26T01:02:22;31.59;29.67;36.88;;
71020;Laerm;58902;51.436;5.980;2023-03-26T01:02:34;31.36;29.14;40.88;;
71020;Laerm;58902;51.436;5.980;2023-03-26T01:02:44;30.80;29.29;35.27;;
71020;Laerm;58902;51.436;5.980;2023-03-26T01:02:55;31.01;29.21;35.89;;
71020;Laerm;58902;51.436;5.980;2023-03-26T01:03:09;30.78;28.80;36.28;;
71020;Laerm;58902;51.436;5.980;2023-03-26T01:03:22;30.14;28.40;37.24;;
71020;Laerm;58902;51.436;5.980;2023-03-26T01:03:35;30.36;28.57;36.34;;
71020;Laerm;58902;51.436;5.980;2023-03-26T01:03:46;30.32;28.52;34.81;;
71020;Laerm;58902;51.436;5.980;2023-03-26T01:03:57;29.97;28.68;33.25;;
71020;Laerm;58902;51.436;5.980;2023-03-26T01:04:19;30.07;28.62;35.16;;
71020;Laerm;58902;51.436;5.980;2023-03-26T01:04:33;30.68;28.89;38.37;;
71020;Laerm;58902;51.436;5.980;2023-03-26T01:04:44;30.25;28.39;32.29;;